Hovedside
METAR-TAF:

METAR-TAF

Lufthavner :

Tamanrasset, Algerie

breddegrad: 22-49N, lengdegrad: 005-28E, høyde over havet: 1377 m

Gjeldene værobservasjon

Denne rapporten ble laget for 58 minutter siden, klokken 16:30 UTC
Vind 12 kt fra Øst, skiftende mellom Øst-nordøst og Øst-sørøst
Temperatur 39°C
Trykk 1019 hPa
Sikt 10 km eller mer
ingen skyer under 1500 m og ingen bygeskyer

METAR: DAAT 171630Z 09012KT 060V120 CAVOK 39/// Q1019

Tid: 18:28 (17:28 UTC)

Varsel

Denne rapporten ble laget for 6 timer og 28 minutter siden, klokken 11:00 UTC
Varsel gyldig fra 17. klokken 12 UTC til 18. klokken 12 UTC
Vind 15 kt fra Øst
Sikt 10 km eller mer
ingen skyer under 1500 m og ingen bygeskyer
Sannsynlighet 40% :
Midlertidig
fra 17. klokken 14 UTC til 18. klokken 03 UTC
Vind 15 kt fra Øst med vindkast opp mot 25 kt

TAF: DAAT 171100Z 1712/1812 08015KT CAVOK PROB40 TEMPO 1714/1803 10015G25KT

Værobservasjoner og værvarsel for over 4000 flyplasser (METAR- og TAF-rapporter).

Tilgjengelige stasjoner er representert av de røde og gule prikkene på kartet.

Hold musepekeren over prikken for å se navnet på stasjonen.

Klikk så for å se værobservasjoner og -varsler.

For å forandre kartet kan du klikke på den grønne knappen med svart kryss for å zoome inn, på den grønne knappen med strek for å zoome ut, eller på de grønne pilene for å se tilstøtende kart.


METAR-TAF: